sensor_id;sensor_type;location;lat;lon;timestamp;P1;durP1;ratioP1;P2;durP2;ratioP2
48487;SDS011;34289;48.572;13.378;2023-08-01T00:00:04;5.93;;;4.95;;
48487;SDS011;34289;48.572;13.378;2023-08-01T00:02:32;6.03;;;5.05;;
48487;SDS011;34289;48.572;13.378;2023-08-01T00:04:58;9.88;;;5.25;;
48487;SDS011;34289;48.572;13.378;2023-08-01T00:07:24;7.15;;;5.00;;
48487;SDS011;34289;48.572;13.378;2023-08-01T00:09:53;5.95;;;4.50;;
48487;SDS011;34289;48.572;13.378;2023-08-01T00:12:19;7.45;;;4.88;;
48487;SDS011;34289;48.572;13.378;2023-08-01T00:14:45;9.20;;;4.80;;
48487;SDS011;34289;48.572;13.378;2023-08-01T00:17:10;9.18;;;5.10;;
48487;SDS011;34289;48.572;13.378;2023-08-01T00:19:36;6.25;;;4.82;;
48487;SDS011;34289;48.572;13.378;2023-08-01T00:22:02;6.15;;;5.28;;
48487;SDS011;34289;48.572;13.378;2023-08-01T00:24:27;5.32;;;4.90;;
48487;SDS011;34289;48.572;13.378;2023-08-01T00:26:53;6.13;;;5.13;;
48487;SDS011;34289;48.572;13.378;2023-08-01T00:29:20;6.47;;;4.82;;
48487;SDS011;34289;48.572;13.378;2023-08-01T00:31:46;10.25;;;4.72;;
48487;SDS011;34289;48.572;13.378;2023-08-01T00:34:12;15.77;;;5.35;;
48487;SDS011;34289;48.572;13.378;2023-08-01T00:36:38;9.93;;;5.13;;
48487;SDS011;34289;48.572;13.378;2023-08-01T00:39:03;6.97;;;3.30;;
48487;SDS011;34289;48.572;13.378;2023-08-01T00:41:29;7.70;;;3.58;;
48487;SDS011;34289;48.572;13.378;2023-08-01T00:43:54;10.13;;;3.58;;
48487;SDS011;34289;48.572;13.378;2023-08-01T00:46:20;7.78;;;3.63;;
48487;SDS011;34289;48.572;13.378;2023-08-01T00:48:46;7.10;;;3.63;;
48487;SDS011;34289;48.572;13.378;2023-08-01T00:51:11;8.32;;;3.42;;
48487;SDS011;34289;48.572;13.378;2023-08-01T00:53:38;6.10;;;3.30;;
48487;SDS011;34289;48.572;13.378;2023-08-01T00:56:04;8.43;;;3.15;;
48487;SDS011;34289;48.572;13.378;2023-08-01T00:58:30;10.82;;;3.92;;
48487;SDS011;34289;48.572;13.378;2023-08-01T01:00:55;6.50;;;3.40;;
48487;SDS011;34289;48.572;13.378;2023-08-01T01:03:22;5.88;;;3.60;;
48487;SDS011;34289;48.572;13.378;2023-08-01T01:06:01;9.13;;;3.75;;
48487;SDS011;34289;48.572;13.378;2023-08-01T01:08:47;6.35;;;3.35;;
48487;SDS011;34289;48.572;13.378;2023-08-01T01:11:13;9.95;;;4.22;;
48487;SDS011;34289;48.572;13.378;2023-08-01T01:13:38;10.38;;;3.88;;
48487;SDS011;34289;48.572;13.378;2023-08-01T01:16:04;8.43;;;3.42;;
48487;SDS011;34289;48.572;13.378;2023-08-01T01:18:30;6.53;;;3.63;;
48487;SDS011;34289;48.572;13.378;2023-08-01T01:20:55;5.00;;;3.72;;
48487;SDS011;34289;48.572;13.378;2023-08-01T01:23:21;4.55;;;3.17;;
48487;SDS011;34289;48.572;13.378;2023-08-01T01:25:47;6.60;;;3.33;;
48487;SDS011;34289;48.572;13.378;2023-08-01T01:28:16;6.95;;;3.65;;
48487;SDS011;34289;48.572;13.378;2023-08-01T01:30:42;7.53;;;3.40;;
48487;SDS011;34289;48.572;13.378;2023-08-01T01:33:09;7.53;;;3.22;;
48487;SDS011;34289;48.572;13.378;2023-08-01T01:35:36;7.18;;;3.63;;
48487;SDS011;34289;48.572;13.378;2023-08-01T01:38:02;6.43;;;3.65;;
48487;SDS011;34289;48.572;13.378;2023-08-01T01:40:31;7.40;;;3.83;;
48487;SDS011;34289;48.572;13.378;2023-08-01T01:42:58;9.93;;;4.20;;
48487;SDS011;34289;48.572;13.378;2023-08-01T01:45:24;7.63;;;4.03;;
48487;SDS011;34289;48.572;13.378;2023-08-01T01:47:50;6.70;;;3.40;;
48487;SDS011;34289;48.572;13.378;2023-08-01T01:50:16;9.90;;;4.63;;
48487;SDS011;34289;48.572;13.378;2023-08-01T01:52:42;5.93;;;3.42;;
48487;SDS011;34289;48.572;13.378;2023-08-01T01:55:08;3.90;;;3.05;;
48487;SDS011;34289;48.572;13.378;2023-08-01T01:57:34;5.10;;;3.38;;
48487;SDS011;34289;48.572;13.378;2023-08-01T02:00:02;9.98;;;3.85;;
48487;SDS011;34289;48.572;13.378;2023-08-01T02:02:28;6.05;;;3.58;;
48487;SDS011;34289;48.572;13.378;2023-08-01T02:04:54;7.13;;;4.00;;
48487;SDS011;34289;48.572;13.378;2023-08-01T02:07:19;8.38;;;3.38;;
48487;SDS011;34289;48.572;13.378;2023-08-01T02:09:45;9.02;;;3.65;;
48487;SDS011;34289;48.572;13.378;2023-08-01T02:12:11;6.82;;;3.50;;
48487;SDS011;34289;48.572;13.378;2023-08-01T02:14:39;6.85;;;3.50;;
48487;SDS011;34289;48.572;13.378;2023-08-01T02:17:05;9.43;;;3.65;;
48487;SDS011;34289;48.572;13.378;2023-08-01T02:19:31;7.63;;;3.60;;
48487;SDS011;34289;48.572;13.378;2023-08-01T02:21:57;9.27;;;3.42;;
48487;SDS011;34289;48.572;13.378;2023-08-01T02:24:23;10.48;;;3.58;;
48487;SDS011;34289;48.572;13.378;2023-08-01T02:26:50;6.00;;;3.08;;
48487;SDS011;34289;48.572;13.378;2023-08-01T02:29:16;6.53;;;3.88;;
48487;SDS011;34289;48.572;13.378;2023-08-01T02:31:41;8.63;;;3.63;;
48487;SDS011;34289;48.572;13.378;2023-08-01T02:34:07;5.57;;;3.58;;
48487;SDS011;34289;48.572;13.378;2023-08-01T02:36:32;7.50;;;3.78;;
48487;SDS011;34289;48.572;13.378;2023-08-01T02:38:58;13.50;;;4.50;;
48487;SDS011;34289;48.572;13.378;2023-08-01T02:41:24;6.53;;;3.78;;
48487;SDS011;34289;48.572;13.378;2023-08-01T02:43:49;7.07;;;3.53;;
48487;SDS011;34289;48.572;13.378;2023-08-01T02:46:15;5.30;;;3.40;;
48487;SDS011;34289;48.572;13.378;2023-08-01T02:48:40;7.13;;;3.25;;
48487;SDS011;34289;48.572;13.378;2023-08-01T02:51:06;6.00;;;3.63;;
48487;SDS011;34289;48.572;13.378;2023-08-01T02:53:34;7.65;;;4.05;;
48487;SDS011;34289;48.572;13.378;2023-08-01T02:56:05;6.00;;;3.88;;
48487;SDS011;34289;48.572;13.378;2023-08-01T02:58:32;5.53;;;3.38;;
48487;SDS011;34289;48.572;13.378;2023-08-01T03:00:58;4.53;;;3.83;;
48487;SDS011;34289;48.572;13.378;2023-08-01T03:03:23;8.07;;;4.38;;
48487;SDS011;34289;48.572;13.378;2023-08-01T03:05:49;4.80;;;3.63;;
48487;SDS011;34289;48.572;13.378;2023-08-01T03:08:14;7.85;;;3.85;;
48487;SDS011;34289;48.572;13.378;2023-08-01T03:10:40;7.25;;;4.05;;
48487;SDS011;34289;48.572;13.378;2023-08-01T03:13:06;6.55;;;3.75;;
48487;SDS011;34289;48.572;13.378;2023-08-01T03:15:31;9.38;;;4.60;;
48487;SDS011;34289;48.572;13.378;2023-08-01T03:17:57;6.50;;;4.07;;
48487;SDS011;34289;48.572;13.378;2023-08-01T03:20:23;6.20;;;4.10;;
48487;SDS011;34289;48.572;13.378;2023-08-01T03:22:48;4.15;;;3.55;;
48487;SDS011;34289;48.572;13.378;2023-08-01T03:25:14;5.65;;;3.55;;
48487;SDS011;34289;48.572;13.378;2023-08-01T03:27:40;8.30;;;3.78;;
48487;SDS011;34289;48.572;13.378;2023-08-01T03:30:05;11.38;;;3.72;;
48487;SDS011;34289;48.572;13.378;2023-08-01T03:32:34;7.03;;;3.72;;
48487;SDS011;34289;48.572;13.378;2023-08-01T03:35:02;6.10;;;4.30;;
48487;SDS011;34289;48.572;13.378;2023-08-01T03:37:28;8.35;;;3.92;;
48487;SDS011;34289;48.572;13.378;2023-08-01T03:39:54;19.27;;;4.75;;
48487;SDS011;34289;48.572;13.378;2023-08-01T03:42:20;5.50;;;3.60;;
48487;SDS011;34289;48.572;13.378;2023-08-01T03:44:45;7.38;;;3.92;;
48487;SDS011;34289;48.572;13.378;2023-08-01T03:47:11;8.77;;;4.28;;
48487;SDS011;34289;48.572;13.378;2023-08-01T03:49:36;8.55;;;3.30;;
48487;SDS011;34289;48.572;13.378;2023-08-01T03:52:03;8.13;;;3.88;;
48487;SDS011;34289;48.572;13.378;2023-08-01T03:54:30;9.82;;;4.07;;
48487;SDS011;34289;48.572;13.378;2023-08-01T03:56:55;6.93;;;4.20;;
48487;SDS011;34289;48.572;13.378;2023-08-01T03:59:21;9.82;;;4.53;;
48487;SDS011;34289;48.572;13.378;2023-08-01T04:01:47;6.07;;;4.03;;
48487;SDS011;34289;48.572;13.378;2023-08-01T04:04:13;10.23;;;3.80;;
48487;SDS011;34289;48.572;13.378;2023-08-01T04:06:38;6.53;;;4.35;;
48487;SDS011;34289;48.572;13.378;2023-08-01T04:09:04;8.68;;;4.13;;
48487;SDS011;34289;48.572;13.378;2023-08-01T04:11:31;10.43;;;4.85;;
48487;SDS011;34289;48.572;13.378;2023-08-01T04:13:57;7.45;;;4.20;;
48487;SDS011;34289;48.572;13.378;2023-08-01T04:16:22;7.65;;;4.13;;
48487;SDS011;34289;48.572;13.378;2023-08-01T04:18:48;4.88;;;4.20;;
48487;SDS011;34289;48.572;13.378;2023-08-01T04:21:14;10.15;;;4.68;;
48487;SDS011;34289;48.572;13.378;2023-08-01T04:23:40;9.07;;;4.60;;
48487;SDS011;34289;48.572;13.378;2023-08-01T04:26:06;8.82;;;4.53;;
48487;SDS011;34289;48.572;13.378;2023-08-01T04:28:32;6.13;;;3.80;;
48487;SDS011;34289;48.572;13.378;2023-08-01T04:30:58;5.75;;;3.45;;
48487;SDS011;34289;48.572;13.378;2023-08-01T04:33:24;7.90;;;3.60;;
48487;SDS011;34289;48.572;13.378;2023-08-01T04:35:50;7.97;;;5.10;;
48487;SDS011;34289;48.572;13.378;2023-08-01T04:38:15;8.20;;;3.80;;
48487;SDS011;34289;48.572;13.378;2023-08-01T04:40:41;7.60;;;4.70;;
48487;SDS011;34289;48.572;13.378;2023-08-01T04:43:07;6.70;;;3.90;;
48487;SDS011;34289;48.572;13.378;2023-08-01T04:45:33;4.93;;;3.65;;
48487;SDS011;34289;48.572;13.378;2023-08-01T04:47:59;5.70;;;4.05;;
48487;SDS011;34289;48.572;13.378;2023-08-01T04:50:25;11.65;;;4.95;;
48487;SDS011;34289;48.572;13.378;2023-08-01T04:52:50;6.28;;;4.45;;
48487;SDS011;34289;48.572;13.378;2023-08-01T04:55:16;9.65;;;4.85;;
48487;SDS011;34289;48.572;13.378;2023-08-01T04:57:42;11.98;;;5.32;;
48487;SDS011;34289;48.572;13.378;2023-08-01T05:00:08;10.32;;;4.53;;
48487;SDS011;34289;48.572;13.378;2023-08-01T05:02:35;8.85;;;4.03;;
48487;SDS011;34289;48.572;13.378;2023-08-01T05:05:00;6.63;;;4.25;;
48487;SDS011;34289;48.572;13.378;2023-08-01T05:07:26;6.97;;;4.40;;
48487;SDS011;34289;48.572;13.378;2023-08-01T05:09:51;9.60;;;4.47;;
48487;SDS011;34289;48.572;13.378;2023-08-01T05:12:17;6.70;;;3.75;;
48487;SDS011;34289;48.572;13.378;2023-08-01T05:14:42;5.22;;;3.83;;
48487;SDS011;34289;48.572;13.378;2023-08-01T05:17:08;8.02;;;4.68;;
48487;SDS011;34289;48.572;13.378;2023-08-01T05:19:34;8.27;;;4.15;;
48487;SDS011;34289;48.572;13.378;2023-08-01T05:21:59;5.78;;;4.00;;
48487;SDS011;34289;48.572;13.378;2023-08-01T05:24:25;6.35;;;3.83;;
48487;SDS011;34289;48.572;13.378;2023-08-01T05:26:50;8.27;;;4.65;;
48487;SDS011;34289;48.572;13.378;2023-08-01T05:29:16;9.57;;;3.70;;
48487;SDS011;34289;48.572;13.378;2023-08-01T05:31:42;5.43;;;3.97;;
48487;SDS011;34289;48.572;13.378;2023-08-01T05:34:07;8.25;;;4.30;;
48487;SDS011;34289;48.572;13.378;2023-08-01T05:36:33;7.18;;;3.97;;
48487;SDS011;34289;48.572;13.378;2023-08-01T05:38:58;6.15;;;3.85;;
48487;SDS011;34289;48.572;13.378;2023-08-01T05:41:24;10.05;;;3.72;;
48487;SDS011;34289;48.572;13.378;2023-08-01T05:43:50;9.25;;;4.00;;
48487;SDS011;34289;48.572;13.378;2023-08-01T05:46:15;7.88;;;4.10;;
48487;SDS011;34289;48.572;13.378;2023-08-01T05:48:41;7.72;;;4.22;;
48487;SDS011;34289;48.572;13.378;2023-08-01T05:51:07;6.13;;;3.40;;
48487;SDS011;34289;48.572;13.378;2023-08-01T05:53:32;8.82;;;4.10;;
48487;SDS011;34289;48.572;13.378;2023-08-01T05:55:58;6.95;;;3.95;;
48487;SDS011;34289;48.572;13.378;2023-08-01T05:58:24;8.63;;;3.97;;
48487;SDS011;34289;48.572;13.378;2023-08-01T06:00:49;8.15;;;3.72;;
48487;SDS011;34289;48.572;13.378;2023-08-01T06:03:15;5.75;;;4.40;;
48487;SDS011;34289;48.572;13.378;2023-08-01T06:05:41;7.00;;;4.03;;
48487;SDS011;34289;48.572;13.378;2023-08-01T06:08:07;7.25;;;4.10;;
48487;SDS011;34289;48.572;13.378;2023-08-01T06:10:33;6.72;;;4.30;;
48487;SDS011;34289;48.572;13.378;2023-08-01T06:13:02;5.70;;;3.65;;
48487;SDS011;34289;48.572;13.378;2023-08-01T06:15:27;6.50;;;3.63;;
48487;SDS011;34289;48.572;13.378;2023-08-01T06:17:53;5.78;;;4.10;;
48487;SDS011;34289;48.572;13.378;2023-08-01T06:20:19;5.72;;;3.63;;
48487;SDS011;34289;48.572;13.378;2023-08-01T06:22:51;8.50;;;4.07;;
48487;SDS011;34289;48.572;13.378;2023-08-01T06:25:17;6.38;;;3.90;;
48487;SDS011;34289;48.572;13.378;2023-08-01T06:27:42;8.68;;;4.35;;
48487;SDS011;34289;48.572;13.378;2023-08-01T06:30:08;6.10;;;4.03;;
48487;SDS011;34289;48.572;13.378;2023-08-01T06:32:34;8.55;;;4.10;;
48487;SDS011;34289;48.572;13.378;2023-08-01T06:35:00;9.60;;;4.57;;
48487;SDS011;34289;48.572;13.378;2023-08-01T06:37:25;6.45;;;4.10;;
48487;SDS011;34289;48.572;13.378;2023-08-01T06:39:51;8.73;;;4.18;;
48487;SDS011;34289;48.572;13.378;2023-08-01T06:42:16;7.55;;;4.60;;
48487;SDS011;34289;48.572;13.378;2023-08-01T06:44:43;12.48;;;5.13;;
48487;SDS011;34289;48.572;13.378;2023-08-01T06:47:08;11.02;;;5.38;;
48487;SDS011;34289;48.572;13.378;2023-08-01T06:49:34;9.10;;;4.38;;
48487;SDS011;34289;48.572;13.378;2023-08-01T06:52:00;10.18;;;4.68;;
48487;SDS011;34289;48.572;13.378;2023-08-01T06:54:25;11.93;;;4.63;;
48487;SDS011;34289;48.572;13.378;2023-08-01T06:56:51;12.07;;;4.85;;
48487;SDS011;34289;48.572;13.378;2023-08-01T06:59:16;12.18;;;4.95;;
48487;SDS011;34289;48.572;13.378;2023-08-01T07:01:43;7.70;;;4.47;;
48487;SDS011;34289;48.572;13.378;2023-08-01T07:04:12;11.90;;;4.65;;
48487;SDS011;34289;48.572;13.378;2023-08-01T07:06:38;8.48;;;4.60;;
48487;SDS011;34289;48.572;13.378;2023-08-01T07:09:05;8.57;;;5.22;;
48487;SDS011;34289;48.572;13.378;2023-08-01T07:11:31;7.47;;;4.00;;
48487;SDS011;34289;48.572;13.378;2023-08-01T07:13:57;9.35;;;4.78;;
48487;SDS011;34289;48.572;13.378;2023-08-01T07:16:23;6.93;;;4.47;;
48487;SDS011;34289;48.572;13.378;2023-08-01T07:18:48;6.35;;;4.50;;
48487;SDS011;34289;48.572;13.378;2023-08-01T07:21:15;7.63;;;4.47;;
48487;SDS011;34289;48.572;13.378;2023-08-01T07:23:41;7.72;;;4.70;;
48487;SDS011;34289;48.572;13.378;2023-08-01T07:26:07;7.35;;;5.05;;
48487;SDS011;34289;48.572;13.378;2023-08-01T07:28:32;5.05;;;4.00;;
48487;SDS011;34289;48.572;13.378;2023-08-01T07:31:07;7.30;;;3.83;;
48487;SDS011;34289;48.572;13.378;2023-08-01T07:33:33;8.88;;;4.43;;
48487;SDS011;34289;48.572;13.378;2023-08-01T07:35:59;7.32;;;4.95;;
48487;SDS011;34289;48.572;13.378;2023-08-01T07:38:25;10.50;;;4.18;;
48487;SDS011;34289;48.572;13.378;2023-08-01T07:40:54;8.93;;;4.40;;
48487;SDS011;34289;48.572;13.378;2023-08-01T07:43:20;11.43;;;4.85;;
48487;SDS011;34289;48.572;13.378;2023-08-01T07:45:46;6.97;;;5.00;;
48487;SDS011;34289;48.572;13.378;2023-08-01T07:48:12;9.70;;;5.15;;
48487;SDS011;34289;48.572;13.378;2023-08-01T07:50:37;7.70;;;4.65;;
48487;SDS011;34289;48.572;13.378;2023-08-01T07:53:03;7.40;;;4.63;;
48487;SDS011;34289;48.572;13.378;2023-08-01T07:55:29;10.13;;;4.75;;
48487;SDS011;34289;48.572;13.378;2023-08-01T07:57:59;9.68;;;4.35;;
48487;SDS011;34289;48.572;13.378;2023-08-01T08:00:24;6.53;;;5.22;;
48487;SDS011;34289;48.572;13.378;2023-08-01T08:02:50;8.18;;;4.25;;
48487;SDS011;34289;48.572;13.378;2023-08-01T08:05:16;8.75;;;4.60;;
48487;SDS011;34289;48.572;13.378;2023-08-01T08:07:42;7.53;;;5.15;;
48487;SDS011;34289;48.572;13.378;2023-08-01T08:10:07;8.63;;;5.13;;
48487;SDS011;34289;48.572;13.378;2023-08-01T08:12:33;9.85;;;5.90;;
48487;SDS011;34289;48.572;13.378;2023-08-01T08:14:59;9.82;;;5.65;;
48487;SDS011;34289;48.572;13.378;2023-08-01T08:17:24;8.15;;;4.68;;
48487;SDS011;34289;48.572;13.378;2023-08-01T08:19:50;5.60;;;4.15;;
48487;SDS011;34289;48.572;13.378;2023-08-01T08:22:16;9.85;;;5.47;;
48487;SDS011;34289;48.572;13.378;2023-08-01T08:24:42;8.43;;;5.05;;
48487;SDS011;34289;48.572;13.378;2023-08-01T08:27:08;9.57;;;4.57;;
48487;SDS011;34289;48.572;13.378;2023-08-01T08:29:33;11.13;;;5.07;;
48487;SDS011;34289;48.572;13.378;2023-08-01T08:31:59;8.57;;;5.40;;
48487;SDS011;34289;48.572;13.378;2023-08-01T08:34:24;9.80;;;6.15;;
48487;SDS011;34289;48.572;13.378;2023-08-01T08:36:50;7.50;;;4.63;;
48487;SDS011;34289;48.572;13.378;2023-08-01T08:39:16;7.07;;;5.18;;
48487;SDS011;34289;48.572;13.378;2023-08-01T08:41:47;7.93;;;5.22;;
48487;SDS011;34289;48.572;13.378;2023-08-01T08:44:17;11.40;;;5.28;;
48487;SDS011;34289;48.572;13.378;2023-08-01T08:46:50;7.32;;;4.78;;
48487;SDS011;34289;48.572;13.378;2023-08-01T08:49:22;8.10;;;4.93;;
48487;SDS011;34289;48.572;13.378;2023-08-01T08:51:49;6.03;;;4.80;;
48487;SDS011;34289;48.572;13.378;2023-08-01T08:54:15;5.90;;;4.55;;
48487;SDS011;34289;48.572;13.378;2023-08-01T08:56:42;7.50;;;4.43;;
48487;SDS011;34289;48.572;13.378;2023-08-01T08:59:08;7.05;;;4.25;;
48487;SDS011;34289;48.572;13.378;2023-08-01T09:01:37;6.75;;;5.18;;
48487;SDS011;34289;48.572;13.378;2023-08-01T09:04:03;6.35;;;4.55;;
48487;SDS011;34289;48.572;13.378;2023-08-01T09:06:37;8.88;;;4.97;;
48487;SDS011;34289;48.572;13.378;2023-08-01T09:09:10;5.93;;;4.40;;
48487;SDS011;34289;48.572;13.378;2023-08-01T09:14:13;6.28;;;4.07;;
48487;SDS011;34289;48.572;13.378;2023-08-01T09:16:39;7.75;;;4.32;;
48487;SDS011;34289;48.572;13.378;2023-08-01T09:19:06;6.88;;;4.25;;
48487;SDS011;34289;48.572;13.378;2023-08-01T09:21:32;10.93;;;6.03;;
48487;SDS011;34289;48.572;13.378;2023-08-01T09:24:07;5.82;;;4.60;;
48487;SDS011;34289;48.572;13.378;2023-08-01T09:26:34;7.65;;;5.05;;
48487;SDS011;34289;48.572;13.378;2023-08-01T09:28:59;4.80;;;3.88;;
48487;SDS011;34289;48.572;13.378;2023-08-01T09:31:26;8.90;;;5.07;;
48487;SDS011;34289;48.572;13.378;2023-08-01T09:33:53;6.80;;;4.60;;
48487;SDS011;34289;48.572;13.378;2023-08-01T09:36:22;7.90;;;4.78;;
48487;SDS011;34289;48.572;13.378;2023-08-01T09:38:48;7.53;;;3.95;;
48487;SDS011;34289;48.572;13.378;2023-08-01T09:41:17;6.70;;;4.18;;
48487;SDS011;34289;48.572;13.378;2023-08-01T09:43:45;6.95;;;4.03;;
48487;SDS011;34289;48.572;13.378;2023-08-01T09:46:12;5.80;;;4.20;;
48487;SDS011;34289;48.572;13.378;2023-08-01T09:48:38;4.93;;;3.72;;
48487;SDS011;34289;48.572;13.378;2023-08-01T09:51:08;5.38;;;3.72;;
48487;SDS011;34289;48.572;13.378;2023-08-01T09:53:35;6.72;;;4.35;;
48487;SDS011;34289;48.572;13.378;2023-08-01T09:56:24;7.32;;;5.43;;
48487;SDS011;34289;48.572;13.378;2023-08-01T09:58:51;6.40;;;4.80;;
48487;SDS011;34289;48.572;13.378;2023-08-01T10:01:19;6.07;;;4.05;;
48487;SDS011;34289;48.572;13.378;2023-08-01T10:03:47;5.43;;;4.38;;
48487;SDS011;34289;48.572;13.378;2023-08-01T10:06:16;6.43;;;3.80;;
48487;SDS011;34289;48.572;13.378;2023-08-01T10:08:45;6.35;;;4.95;;
48487;SDS011;34289;48.572;13.378;2023-08-01T10:11:12;7.38;;;4.03;;
48487;SDS011;34289;48.572;13.378;2023-08-01T10:13:40;6.47;;;4.93;;
48487;SDS011;34289;48.572;13.378;2023-08-01T10:16:07;7.95;;;3.88;;
48487;SDS011;34289;48.572;13.378;2023-08-01T10:18:33;5.60;;;4.05;;
48487;SDS011;34289;48.572;13.378;2023-08-01T10:21:02;6.60;;;4.80;;
48487;SDS011;34289;48.572;13.378;2023-08-01T10:23:30;7.40;;;3.90;;
48487;SDS011;34289;48.572;13.378;2023-08-01T10:25:57;6.00;;;3.97;;
48487;SDS011;34289;48.572;13.378;2023-08-01T10:28:31;7.35;;;4.43;;
48487;SDS011;34289;48.572;13.378;2023-08-01T10:31:13;8.93;;;4.30;;
48487;SDS011;34289;48.572;13.378;2023-08-01T10:33:41;5.07;;;4.15;;
48487;SDS011;34289;48.572;13.378;2023-08-01T10:36:17;5.82;;;3.95;;
48487;SDS011;34289;48.572;13.378;2023-08-01T10:38:46;5.45;;;3.78;;
48487;SDS011;34289;48.572;13.378;2023-08-01T10:49:33;7.43;;;4.80;;
48487;SDS011;34289;48.572;13.378;2023-08-01T10:52:03;7.03;;;5.03;;
48487;SDS011;34289;48.572;13.378;2023-08-01T10:54:42;6.03;;;4.25;;
48487;SDS011;34289;48.572;13.378;2023-08-01T10:57:07;6.63;;;3.85;;
48487;SDS011;34289;48.572;13.378;2023-08-01T10:59:34;5.13;;;3.67;;
48487;SDS011;34289;48.572;13.378;2023-08-01T11:01:59;5.80;;;4.10;;
48487;SDS011;34289;48.572;13.378;2023-08-01T11:04:26;7.25;;;4.05;;
48487;SDS011;34289;48.572;13.378;2023-08-01T11:06:53;6.82;;;3.72;;
48487;SDS011;34289;48.572;13.378;2023-08-01T11:09:23;5.55;;;3.78;;
48487;SDS011;34289;48.572;13.378;2023-08-01T11:11:52;5.25;;;3.88;;
48487;SDS011;34289;48.572;13.378;2023-08-01T11:14:19;5.95;;;3.50;;
48487;SDS011;34289;48.572;13.378;2023-08-01T11:16:47;5.57;;;3.70;;
48487;SDS011;34289;48.572;13.378;2023-08-01T11:19:17;8.27;;;4.13;;
48487;SDS011;34289;48.572;13.378;2023-08-01T11:21:47;4.70;;;3.03;;
48487;SDS011;34289;48.572;13.378;2023-08-01T11:24:13;5.95;;;3.72;;
48487;SDS011;34289;48.572;13.378;2023-08-01T11:26:46;6.50;;;4.25;;
48487;SDS011;34289;48.572;13.378;2023-08-01T11:29:13;6.07;;;4.03;;
48487;SDS011;34289;48.572;13.378;2023-08-01T11:31:40;8.40;;;4.53;;
48487;SDS011;34289;48.572;13.378;2023-08-01T11:34:08;7.10;;;4.05;;
48487;SDS011;34289;48.572;13.378;2023-08-01T11:36:35;7.47;;;4.55;;
48487;SDS011;34289;48.572;13.378;2023-08-01T11:39:01;5.68;;;3.60;;
48487;SDS011;34289;48.572;13.378;2023-08-01T11:41:27;7.22;;;4.00;;
48487;SDS011;34289;48.572;13.378;2023-08-01T11:43:53;9.65;;;4.10;;
48487;SDS011;34289;48.572;13.378;2023-08-01T11:46:22;5.30;;;3.83;;
48487;SDS011;34289;48.572;13.378;2023-08-01T11:48:55;5.30;;;3.65;;
48487;SDS011;34289;48.572;13.378;2023-08-01T11:51:20;6.32;;;4.18;;
48487;SDS011;34289;48.572;13.378;2023-08-01T11:53:46;7.07;;;4.30;;
48487;SDS011;34289;48.572;13.378;2023-08-01T11:56:23;12.10;;;4.32;;
48487;SDS011;34289;48.572;13.378;2023-08-01T11:58:48;6.15;;;4.20;;
48487;SDS011;34289;48.572;13.378;2023-08-01T12:01:14;6.05;;;3.97;;
48487;SDS011;34289;48.572;13.378;2023-08-01T12:03:46;5.70;;;3.97;;
48487;SDS011;34289;48.572;13.378;2023-08-01T12:06:20;8.93;;;3.58;;
48487;SDS011;34289;48.572;13.378;2023-08-01T12:08:48;7.55;;;4.63;;
48487;SDS011;34289;48.572;13.378;2023-08-01T12:11:25;6.82;;;4.32;;
48487;SDS011;34289;48.572;13.378;2023-08-01T12:14:00;5.97;;;4.32;;
48487;SDS011;34289;48.572;13.378;2023-08-01T12:16:27;6.25;;;4.25;;
48487;SDS011;34289;48.572;13.378;2023-08-01T12:18:53;5.30;;;3.58;;
48487;SDS011;34289;48.572;13.378;2023-08-01T12:21:18;8.88;;;5.72;;
48487;SDS011;34289;48.572;13.378;2023-08-01T12:23:44;7.43;;;4.65;;
48487;SDS011;34289;48.572;13.378;2023-08-01T12:26:09;6.05;;;3.80;;
48487;SDS011;34289;48.572;13.378;2023-08-01T12:28:35;6.60;;;3.83;;
48487;SDS011;34289;48.572;13.378;2023-08-01T12:31:01;7.88;;;4.32;;
48487;SDS011;34289;48.572;13.378;2023-08-01T12:33:28;6.32;;;4.10;;
48487;SDS011;34289;48.572;13.378;2023-08-01T12:35:54;7.57;;;5.80;;
48487;SDS011;34289;48.572;13.378;2023-08-01T12:38:20;8.27;;;4.40;;
48487;SDS011;34289;48.572;13.378;2023-08-01T12:40:45;10.85;;;4.45;;
48487;SDS011;34289;48.572;13.378;2023-08-01T12:43:12;9.63;;;4.40;;
48487;SDS011;34289;48.572;13.378;2023-08-01T12:45:37;6.10;;;4.32;;
48487;SDS011;34289;48.572;13.378;2023-08-01T12:48:03;9.48;;;4.90;;
48487;SDS011;34289;48.572;13.378;2023-08-01T12:50:29;9.55;;;5.20;;
48487;SDS011;34289;48.572;13.378;2023-08-01T12:52:54;6.13;;;4.60;;
48487;SDS011;34289;48.572;13.378;2023-08-01T12:55:20;5.72;;;4.22;;
48487;SDS011;34289;48.572;13.378;2023-08-01T12:57:46;7.20;;;4.75;;
48487;SDS011;34289;48.572;13.378;2023-08-01T13:00:12;6.47;;;4.18;;
48487;SDS011;34289;48.572;13.378;2023-08-01T13:02:37;13.07;;;4.15;;
48487;SDS011;34289;48.572;13.378;2023-08-01T13:05:04;8.30;;;4.45;;
48487;SDS011;34289;48.572;13.378;2023-08-01T13:07:30;7.85;;;4.47;;
48487;SDS011;34289;48.572;13.378;2023-08-01T13:09:59;6.63;;;3.47;;
48487;SDS011;34289;48.572;13.378;2023-08-01T13:12:25;6.57;;;3.55;;
48487;SDS011;34289;48.572;13.378;2023-08-01T13:14:51;6.05;;;3.30;;
48487;SDS011;34289;48.572;13.378;2023-08-01T13:17:17;5.75;;;3.10;;
48487;SDS011;34289;48.572;13.378;2023-08-01T13:19:43;3.88;;;2.40;;
48487;SDS011;34289;48.572;13.378;2023-08-01T13:22:09;3.97;;;2.53;;
48487;SDS011;34289;48.572;13.378;2023-08-01T13:24:34;4.03;;;2.45;;
48487;SDS011;34289;48.572;13.378;2023-08-01T13:27:00;5.72;;;3.00;;
48487;SDS011;34289;48.572;13.378;2023-08-01T13:29:25;3.85;;;3.00;;
48487;SDS011;34289;48.572;13.378;2023-08-01T13:31:51;4.13;;;2.80;;
48487;SDS011;34289;48.572;13.378;2023-08-01T13:34:17;4.30;;;2.00;;
48487;SDS011;34289;48.572;13.378;2023-08-01T13:36:42;6.97;;;2.15;;
48487;SDS011;34289;48.572;13.378;2023-08-01T13:39:08;4.00;;;2.78;;
48487;SDS011;34289;48.572;13.378;2023-08-01T13:41:34;2.95;;;2.10;;
48487;SDS011;34289;48.572;13.378;2023-08-01T13:44:00;4.88;;;2.40;;
48487;SDS011;34289;48.572;13.378;2023-08-01T13:46:27;4.07;;;2.00;;
48487;SDS011;34289;48.572;13.378;2023-08-01T13:48:52;2.92;;;2.28;;
48487;SDS011;34289;48.572;13.378;2023-08-01T13:51:18;3.45;;;1.90;;
48487;SDS011;34289;48.572;13.378;2023-08-01T13:53:45;2.97;;;2.28;;
48487;SDS011;34289;48.572;13.378;2023-08-01T13:56:10;4.70;;;2.08;;
48487;SDS011;34289;48.572;13.378;2023-08-01T13:58:37;3.95;;;2.72;;
48487;SDS011;34289;48.572;13.378;2023-08-01T14:01:04;3.80;;;2.30;;
48487;SDS011;34289;48.572;13.378;2023-08-01T14:03:32;4.65;;;3.80;;
48487;SDS011;34289;48.572;13.378;2023-08-01T14:06:05;6.53;;;3.00;;
48487;SDS011;34289;48.572;13.378;2023-08-01T14:08:32;4.22;;;2.38;;
48487;SDS011;34289;48.572;13.378;2023-08-01T14:10:58;5.68;;;2.78;;
48487;SDS011;34289;48.572;13.378;2023-08-01T14:13:24;2.95;;;2.25;;
48487;SDS011;34289;48.572;13.378;2023-08-01T14:15:49;1.80;;;1.30;;
48487;SDS011;34289;48.572;13.378;2023-08-01T14:18:16;3.42;;;2.10;;
48487;SDS011;34289;48.572;13.378;2023-08-01T14:20:42;2.78;;;1.98;;
48487;SDS011;34289;48.572;13.378;2023-08-01T14:23:07;4.15;;;2.20;;
48487;SDS011;34289;48.572;13.378;2023-08-01T14:25:33;5.53;;;3.22;;
48487;SDS011;34289;48.572;13.378;2023-08-01T14:27:59;2.60;;;2.17;;
48487;SDS011;34289;48.572;13.378;2023-08-01T14:30:25;3.03;;;2.47;;
48487;SDS011;34289;48.572;13.378;2023-08-01T14:32:51;3.72;;;2.53;;
48487;SDS011;34289;48.572;13.378;2023-08-01T14:35:16;2.78;;;2.05;;
48487;SDS011;34289;48.572;13.378;2023-08-01T14:37:42;3.42;;;2.08;;
48487;SDS011;34289;48.572;13.378;2023-08-01T14:40:12;5.15;;;1.80;;